Time;durP1;ratioP1;P1;durP2;ratioP2;P2;SDS_P1;SDS_P2;PMS_P1;PMS_P2;Temp;Humidity;BMP_temperature;BMP_pressure;BME280_temperature;BME280_humidity;BME280_pressure;Samples;Min_cycle;Max_cycle;Signal;HPM_P1;HPM_P2
2022/12/30 00:01:40;;;;;;;8.60;6.20;;;9.10;99.90;;;8.91;59.69;99763.09;5106115;28;20220;-69
2022/12/30 00:04:08;;;;;;;8.97;5.93;;;9.10;99.90;;;8.88;60.43;99761.41;5109238;28;20742;-67
2022/12/30 00:06:37;;;;;;;8.53;5.63;;;9.10;99.90;;;8.88;59.91;99760.56;5110492;28;20204;-66
2022/12/30 00:09:05;;;;;;;9.70;5.97;;;9.10;99.90;;;8.88;60.53;99760.56;5097751;28;20608;-69
2022/12/30 00:11:35;;;;;;;8.13;5.60;;;9.10;99.90;;;8.84;60.44;99769.16;5111496;28;20216;-68
2022/12/30 00:33:55;;;;;;;8.00;5.87;;;8.80;99.90;;;8.58;61.30;99783.09;5111837;28;20241;-69
2022/12/30 00:36:26;;;;;;;8.73;6.00;;;8.80;99.90;;;8.56;61.06;99784.78;5111568;28;20283;-70
2022/12/30 00:38:55;;;;;;;7.73;5.77;;;8.70;99.90;;;8.52;61.01;99777.13;5113826;28;20265;-68
2022/12/30 00:44:09;;;;;;;9.07;6.10;;;8.60;99.90;;;8.44;61.50;99783.19;5106583;28;20223;-67
2022/12/30 00:46:42;;;;;;;8.83;6.30;;;8.60;99.90;;;8.42;61.19;99787.44;5113466;28;20717;-67
2022/12/30 00:57:29;;;;;;;9.00;5.57;;;8.50;99.90;;;8.32;61.45;99788.38;5112405;28;20220;-68
2022/12/30 00:59:57;;;;;;;9.87;5.50;;;8.40;99.90;;;8.27;62.22;99794.38;5110207;27;20235;-67
2022/12/30 01:02:28;;;;;;;8.70;5.70;;;8.40;99.90;;;8.23;62.04;99793.53;5113263;28;20196;-67
2022/12/30 01:04:56;;;;;;;8.43;6.00;;;8.30;99.90;;;8.19;61.88;99799.56;5112452;28;20559;-68
2022/12/30 01:07:25;;;;;;;8.83;6.10;;;8.30;99.90;;;8.16;62.41;99800.41;5112905;28;20204;-68
2022/12/30 01:09:53;;;;;;;8.63;5.47;;;8.30;99.90;;;8.13;62.50;99797.88;5111809;28;20253;-67
2022/12/30 01:12:21;;;;;;;8.00;5.50;;;8.20;99.90;;;8.07;63.25;99795.34;5098553;28;20208;-68
2022/12/30 01:14:53;;;;;;;9.40;6.20;;;8.20;99.90;;;8.07;63.74;99805.63;5100113;28;20201;-66
2022/12/30 01:17:25;;;;;;;9.83;5.70;;;8.20;99.90;;;8.07;63.01;99799.66;5112171;28;20218;-66
2022/12/30 01:19:55;;;;;;;10.00;6.20;;;8.20;99.90;;;8.06;63.42;99803.88;5112546;28;20255;-68
2022/12/30 01:22:24;;;;;;;7.87;5.77;;;8.20;99.90;;;8.07;63.15;99794.50;5112559;28;20211;-67
2022/12/30 01:24:52;;;;;;;9.53;6.63;;;8.20;99.90;;;8.06;63.20;99793.63;5112464;28;20223;-67
2022/12/30 01:27:21;;;;;;;10.17;6.57;;;8.20;99.90;;;8.06;63.00;99797.91;5110229;28;20207;-67
2022/12/30 01:29:50;;;;;;;9.90;6.03;;;8.20;99.90;;;8.04;63.36;99785.09;5112632;28;20215;-67
2022/12/30 01:32:21;;;;;;;8.97;6.40;;;8.20;99.90;;;8.03;62.81;99778.28;5109776;28;20265;-67
2022/12/30 01:34:54;;;;;;;8.43;6.07;;;8.20;99.90;;;8.03;63.16;99787.66;5111874;28;20199;-68
2022/12/30 01:37:24;;;;;;;11.93;6.23;;;8.20;99.90;;;8.01;63.37;99785.13;5111487;28;20204;-67
2022/12/30 01:39:53;;;;;;;8.20;6.30;;;8.10;99.90;;;7.98;63.01;99785.97;5109273;28;20208;-69
2022/12/30 01:42:24;;;;;;;11.77;5.77;;;8.10;99.90;;;7.99;63.69;99794.56;5109234;28;20235;-69
2022/12/30 01:45:00;;;;;;;10.80;6.40;;;8.10;99.90;;;7.98;63.32;99790.25;5111917;28;20219;-69
2022/12/30 01:47:37;;;;;;;8.87;5.67;;;8.20;99.90;;;7.97;63.38;99798.81;5110482;28;20212;-69
2022/12/30 01:50:26;;;;;;;9.73;6.03;;;8.10;99.90;;;7.93;63.70;99800.56;5107959;28;20196;-68
2022/12/30 01:53:00;;;;;;;8.90;5.93;;;8.10;99.90;;;7.94;64.15;99798.84;5096736;28;20648;-68
2022/12/30 01:55:34;;;;;;;7.33;5.43;;;8.10;99.90;;;7.91;63.85;99796.28;5112239;28;20653;-67
2022/12/30 01:58:07;;;;;;;8.47;6.50;;;8.00;99.90;;;7.87;63.41;99794.59;5110989;28;20273;-68
2022/12/30 02:00:36;;;;;;;8.53;5.80;;;8.00;99.90;;;7.86;63.79;99808.28;5111679;28;20628;-67
2022/12/30 02:03:05;;;;;;;8.53;6.47;;;8.00;99.90;;;7.82;63.73;99814.28;5111234;28;20759;-69
2022/12/30 02:05:40;;;;;;;8.07;5.90;;;8.00;99.90;;;7.81;63.76;99817.72;5109049;28;20667;-67
2022/12/30 02:08:12;;;;;;;10.37;6.77;;;8.00;99.90;;;7.80;64.41;99813.44;5109215;28;20268;-66
2022/12/30 02:10:45;;;;;;;8.90;6.03;;;7.90;99.90;;;7.80;63.71;99810.88;5109802;28;20200;-68
2022/12/30 02:13:15;;;;;;;10.40;6.50;;;7.90;99.90;;;7.79;63.81;99812.59;5108282;28;20617;-69
2022/12/30 02:16:06;;;;;;;7.83;5.50;;;7.90;99.90;;;7.76;63.87;99802.31;5101664;28;20215;-67
2022/12/30 02:18:51;;;;;;;8.73;6.13;;;7.90;99.90;;;7.74;64.54;99806.63;5110844;28;20238;-68
2022/12/30 02:22:04;;;;;;;9.07;5.83;;;7.90;99.90;;;7.70;63.62;99807.50;5108988;28;20223;-67
2022/12/30 02:25:11;;;;;;;9.23;6.17;;;7.90;99.90;;;7.67;64.06;99810.06;5108764;28;20251;-71
2022/12/30 02:28:31;;;;;;;10.00;5.83;;;7.80;99.90;;;7.66;64.20;99816.06;5108288;28;20211;-67
2022/12/30 02:31:29;;;;;;;10.50;6.80;;;7.80;99.90;;;7.65;64.08;99815.19;5111034;28;20672;-68
2022/12/30 02:34:09;;;;;;;8.33;5.80;;;7.80;99.90;;;7.64;64.23;99818.63;5109994;28;20232;-68
2022/12/30 02:36:47;;;;;;;9.10;6.50;;;7.80;99.90;;;7.66;64.55;99822.03;5110576;28;20290;-70
2022/12/30 02:39:27;;;;;;;11.70;6.87;;;7.80;99.90;;;7.64;63.85;99822.91;5110152;28;20732;-68
2022/12/30 02:44:52;;;;;;;9.67;6.50;;;7.80;99.90;;;7.60;64.10;99827.19;5108778;28;20220;-67
2022/12/30 02:47:28;;;;;;;10.47;6.57;;;7.80;99.90;;;7.58;64.62;99830.59;5110208;28;20685;-69
2022/12/30 02:52:50;;;;;;;12.87;7.13;;;7.70;99.90;;;7.50;64.15;99823.78;5105322;28;20212;-67
2022/12/30 02:55:19;;;;;;;10.27;6.93;;;7.60;99.90;;;7.45;64.55;99816.97;5110769;28;20220;-69
2022/12/30 02:57:47;;;;;;;9.77;6.70;;;7.60;99.90;;;7.39;64.97;99825.53;5102685;28;20203;-68
2022/12/30 03:03:59;;;;;;;9.97;6.97;;;7.50;99.90;;;7.28;65.35;99836.66;5110555;28;20245;-69
2022/12/30 03:07:02;;;;;;;11.13;6.67;;;7.40;99.90;;;7.23;65.67;99839.22;5109655;28;20306;-66
2022/12/30 03:12:52;;;;;;;8.77;7.23;;;7.30;99.90;;;7.12;65.39;99830.69;5109218;28;20291;-69
2022/12/30 03:15:27;;;;;;;10.97;7.13;;;7.20;99.90;;;7.09;65.72;99836.66;5108334;27;20430;-68
2022/12/30 03:17:55;;;;;;;10.60;6.97;;;7.20;99.90;;;7.05;66.01;99850.34;5097272;28;20187;-68
2022/12/30 03:20:26;;;;;;;10.37;7.43;;;7.20;99.90;;;6.99;65.97;99845.22;5109976;28;20688;-68
2022/12/30 03:28:34;;;;;;;10.10;6.80;;;7.10;99.90;;;6.90;66.07;99845.22;5109656;28;20192;-69
2022/12/30 03:31:08;;;;;;;10.57;7.20;;;7.00;99.90;;;6.86;66.15;99852.06;5109987;28;20272;-68
2022/12/30 03:33:36;;;;;;;12.77;7.77;;;7.00;99.90;;;6.83;66.22;99854.59;5107647;28;20277;-69
2022/12/30 03:36:14;;;;;;;10.83;7.17;;;7.00;99.90;;;6.82;66.87;99846.94;5095940;28;20858;-69
2022/12/30 03:38:51;;;;;;;11.53;7.60;;;7.00;99.90;;;6.82;66.63;99849.50;5108678;28;20195;-68
2022/12/30 03:41:22;;;;;;;11.47;7.60;;;7.00;99.90;;;6.83;66.36;99840.97;5109590;28;20203;-68
2022/12/30 03:43:51;;;;;;;11.53;7.77;;;6.90;99.90;;;6.80;66.65;99843.50;5108668;28;20218;-68
2022/12/30 03:46:21;;;;;;;10.57;7.90;;;6.90;99.90;;;6.80;67.11;99846.91;5109134;28;20446;-69
2022/12/30 03:48:50;;;;;;;11.57;7.63;;;6.90;99.90;;;6.79;66.42;99850.34;5108924;28;20240;-69
2022/12/30 03:51:19;;;;;;;12.70;7.50;;;6.90;99.90;;;6.78;66.66;99854.63;5108409;28;20252;-67
2022/12/30 03:53:48;;;;;;;11.93;7.97;;;6.90;99.90;;;6.77;66.55;99855.47;5110954;28;20196;-68
2022/12/30 03:56:16;;;;;;;14.37;7.57;;;6.90;99.90;;;6.76;66.72;99858.00;5096446;28;20217;-68
2022/12/30 03:58:45;;;;;;;10.83;7.70;;;6.90;99.90;;;6.75;67.39;99864.84;5109695;28;20619;-67
2022/12/30 04:01:15;;;;;;;13.17;7.57;;;6.90;99.90;;;6.74;66.54;99858.03;5111877;28;20231;-69
2022/12/30 04:03:44;;;;;;;13.40;7.80;;;6.90;99.90;;;6.70;66.96;99866.56;5111342;28;20222;-69
2022/12/30 04:06:12;;;;;;;12.07;7.40;;;6.80;99.90;;;6.68;67.08;99868.25;5109549;28;20224;-68
2022/12/30 04:08:42;;;;;;;11.20;7.60;;;6.80;99.90;;;6.66;66.98;99867.38;5108360;28;20256;-68
2022/12/30 04:11:11;;;;;;;12.03;7.57;;;6.80;99.90;;;6.67;67.03;99870.81;5098756;28;20853;-69
2022/12/30 04:13:39;;;;;;;13.33;8.07;;;6.80;99.90;;;6.67;66.94;99870.81;5104662;28;20574;-66
2022/12/30 04:16:08;;;;;;;12.17;7.57;;;6.80;99.90;;;6.68;67.01;99873.38;5097216;28;20200;-67
2022/12/30 04:18:37;;;;;;;10.97;6.97;;;6.80;99.90;;;6.69;66.99;99872.50;5106960;28;20204;-68
2022/12/30 04:21:06;;;;;;;11.93;7.47;;;6.80;99.90;;;6.70;66.91;99864.00;5110337;28;20577;-69
2022/12/30 04:23:34;;;;;;;12.70;7.43;;;6.80;99.90;;;6.70;66.91;99869.13;5110630;28;20347;-67
2022/12/30 04:26:04;;;;;;;11.07;7.20;;;6.90;99.90;;;6.66;67.20;99867.38;5109943;28;20745;-67
2022/12/30 04:28:33;;;;;;;14.00;7.53;;;6.90;99.90;;;6.68;66.95;99875.09;5106844;28;20199;-67
2022/12/30 04:31:01;;;;;;;11.17;7.27;;;6.80;99.90;;;6.67;67.29;99876.78;5110455;28;20392;-68
2022/12/30 04:33:30;;;;;;;11.33;8.03;;;6.80;99.90;;;6.68;66.81;99880.22;5108913;28;20629;-67
2022/12/30 04:35:59;;;;;;;11.20;7.30;;;6.80;99.90;;;6.68;67.20;99870.81;5109025;28;20208;-68
2022/12/30 04:38:28;;;;;;;11.50;7.03;;;6.80;99.90;;;6.67;67.18;99873.38;5109243;28;20200;-67
2022/12/30 04:40:57;;;;;;;12.43;7.23;;;6.80;99.90;;;6.68;67.32;99870.81;5108922;28;20222;-65
2022/12/30 04:43:27;;;;;;;10.90;7.13;;;6.90;99.90;;;6.69;67.15;99862.28;5109996;28;20284;-68
2022/12/30 04:45:55;;;;;;;11.50;6.90;;;6.80;99.90;;;6.69;67.55;99867.41;5109389;28;20241;-66
2022/12/30 04:48:23;;;;;;;9.37;7.30;;;6.80;99.90;;;6.71;67.50;99875.94;5105264;28;20208;-67
2022/12/30 04:50:52;;;;;;;10.80;6.93;;;6.90;99.90;;;6.74;67.69;99872.53;5109658;28;20277;-67
2022/12/30 04:53:20;;;;;;;10.53;7.07;;;6.90;99.90;;;6.76;67.64;99868.25;5098965;28;20253;-66
2022/12/30 04:55:53;;;;;;;10.17;7.37;;;6.90;99.90;;;6.78;67.62;99866.56;5111525;28;20214;-67
2022/12/30 04:58:22;;;;;;;11.57;6.70;;;6.80;99.90;;;6.80;67.44;99864.84;5111154;28;20618;-67
2022/12/30 05:00:53;;;;;;;9.83;6.77;;;7.00;99.90;;;6.83;67.28;99869.13;5112431;28;20879;-67
2022/12/30 05:03:21;;;;;;;12.07;7.57;;;7.00;99.90;;;6.84;67.42;99870.81;5112320;28;20200;-68
2022/12/30 05:05:50;;;;;;;8.97;6.33;;;7.00;99.90;;;6.88;67.13;99877.66;5113929;28;20656;-69
2022/12/30 05:08:19;;;;;;;12.10;7.80;;;7.10;99.90;;;6.90;66.88;99883.66;5112163;28;20622;-68
2022/12/30 05:10:47;;;;;;;11.73;7.30;;;7.10;99.90;;;6.92;67.18;99884.47;5111936;28;20507;-68
2022/12/30 05:13:16;;;;;;;10.73;6.77;;;7.10;99.90;;;6.95;66.59;99890.47;5113583;28;20253;-67
2022/12/30 05:15:45;;;;;;;15.20;9.30;;;7.10;99.90;;;6.96;67.29;99891.34;5113583;28;20260;-67
2022/12/30 05:18:14;;;;;;;9.67;7.40;;;7.10;99.90;;;7.00;66.90;99887.94;5112342;28;20211;-67
2022/12/30 05:20:43;;;;;;;9.43;6.73;;;7.20;99.90;;;7.02;67.21;99886.19;5113149;28;20688;-67
2022/12/30 05:28:39;;;;;;;10.57;7.10;;;7.30;99.90;;;7.12;67.00;99890.47;5112839;28;20203;-68
2022/12/30 05:31:08;;;;;;;9.67;6.67;;;7.30;99.90;;;7.14;66.59;99901.59;5112659;28;20277;-69
2022/12/30 05:33:38;;;;;;;12.00;6.70;;;7.30;99.90;;;7.14;66.52;99901.59;5111159;28;20316;-68
2022/12/30 05:36:08;;;;;;;10.00;6.57;;;7.30;99.90;;;7.18;66.65;99908.44;5112960;28;20667;-69
2022/12/30 05:38:37;;;;;;;11.90;7.73;;;7.30;99.90;;;7.19;66.49;99909.28;5104687;28;20253;-68
2022/12/30 05:41:06;;;;;;;10.93;7.00;;;7.40;99.90;;;7.22;66.36;99911.84;5112176;28;20569;-67
2022/12/30 05:43:44;;;;;;;9.97;6.77;;;7.40;99.90;;;7.23;66.14;99911.81;5113372;28;20548;-67
2022/12/30 05:46:13;;;;;;;10.43;7.13;;;7.40;99.90;;;7.24;66.24;99905.00;5109761;28;20223;-68
2022/12/30 05:48:43;;;;;;;10.43;7.10;;;7.40;99.90;;;7.26;66.34;99916.97;5112508;28;20610;-67
2022/12/30 05:51:11;;;;;;;10.60;6.50;;;7.50;99.90;;;7.28;66.60;99927.19;5112302;28;20667;-67
2022/12/30 05:53:40;;;;;;;9.67;5.83;;;7.50;99.90;;;7.31;66.34;99934.03;5113383;28;20264;-68
2022/12/30 05:56:08;;;;;;;10.40;6.60;;;7.50;99.90;;;7.33;66.54;99933.19;5113035;28;20212;-67
2022/12/30 05:58:37;;;;;;;10.83;6.47;;;7.50;99.90;;;7.35;66.13;99941.72;5108878;28;20196;-67
2022/12/30 06:01:06;;;;;;;10.87;6.03;;;7.50;99.90;;;7.38;66.35;99930.63;5108188;28;20224;-66
2022/12/30 06:03:35;;;;;;;9.93;6.20;;;7.50;99.90;;;7.43;66.10;99934.03;5108994;28;20204;-68
2022/12/30 06:06:08;;;;;;;10.47;6.13;;;7.50;99.90;;;7.44;65.86;99936.59;5112993;28;20206;-66
2022/12/30 06:08:38;;;;;;;11.90;6.70;;;7.60;99.90;;;7.45;66.02;99934.91;5107282;28;20200;-68
2022/12/30 06:11:07;;;;;;;10.37;6.70;;;7.60;99.90;;;7.48;65.62;99943.44;5111783;28;20237;-68
2022/12/30 06:13:36;;;;;;;9.40;6.53;;;7.70;99.90;;;7.52;66.17;99939.16;5112173;28;20277;-67
2022/12/30 06:16:05;;;;;;;9.23;6.37;;;7.70;99.90;;;7.49;65.98;99945.13;5108038;27;20260;-67
2022/12/30 06:18:33;;;;;;;9.40;6.00;;;7.70;99.90;;;7.52;66.65;99940.88;5111475;28;20228;-68
2022/12/30 06:21:04;;;;;;;11.90;6.37;;;7.70;99.90;;;7.55;66.55;99945.97;5107594;28;20818;-68
2022/12/30 06:23:32;;;;;;;8.63;6.07;;;7.80;99.90;;;7.56;66.52;99946.00;5111575;28;20248;-67
2022/12/30 06:26:01;;;;;;;10.13;6.13;;;7.80;99.90;;;7.57;66.07;99946.84;5111306;28;20650;-68
2022/12/30 06:28:30;;;;;;;10.33;6.27;;;7.80;99.90;;;7.58;65.99;99949.38;5108440;28;20220;-68
2022/12/30 06:30:59;;;;;;;8.33;5.97;;;7.80;99.90;;;7.55;66.59;99943.41;5110473;28;20261;-67
2022/12/30 06:33:28;;;;;;;10.17;6.37;;;7.80;99.90;;;7.57;66.43;99947.69;5109804;28;20725;-66
2022/12/30 06:35:56;;;;;;;10.20;6.53;;;7.80;99.90;;;7.61;66.32;99962.22;5109878;28;20199;-67
2022/12/30 06:38:26;;;;;;;9.17;6.07;;;7.80;99.90;;;7.63;66.19;99968.22;5110313;28;20257;-68
2022/12/30 06:40:55;;;;;;;7.50;5.43;;;7.80;99.90;;;7.64;66.68;99963.94;5104373;28;20656;-68
2022/12/30 06:43:23;;;;;;;9.60;6.57;;;7.80;99.90;;;7.67;66.23;99959.66;5109533;28;20737;-68
2022/12/30 06:45:51;;;;;;;9.03;5.70;;;7.90;99.90;;;7.70;67.05;99974.19;5110178;28;20204;-68
2022/12/30 06:48:20;;;;;;;10.67;6.03;;;7.90;99.90;;;7.72;66.59;99982.72;5098038;28;20248;-68
2022/12/30 06:50:48;;;;;;;9.03;6.17;;;7.90;99.90;;;7.74;66.87;99987.00;5110781;28;20247;-65
2022/12/30 06:53:17;;;;;;;7.93;6.17;;;7.90;99.90;;;7.74;66.62;99989.56;5111063;28;20207;-68
2022/12/30 06:55:47;;;;;;;11.63;6.50;;;8.00;99.90;;;7.77;66.55;99982.72;5111541;28;20215;-67
2022/12/30 06:58:15;;;;;;;10.17;5.70;;;8.00;99.90;;;7.77;67.27;99983.59;5111102;28;20531;-68
2022/12/30 07:00:44;;;;;;;10.67;5.63;;;8.00;99.90;;;7.77;67.22;99992.97;5109754;28;20242;-68
2022/12/30 07:03:12;;;;;;;9.10;6.10;;;8.00;99.90;;;7.81;66.30;99994.69;5105827;28;20335;-66
2022/12/30 07:05:41;;;;;;;10.77;6.17;;;8.10;99.90;;;7.83;66.57;100005.78;5110579;28;20722;-68
2022/12/30 07:08:09;;;;;;;7.93;5.80;;;8.00;99.90;;;7.83;66.71;100008.34;5109220;28;20623;-67
2022/12/30 07:10:38;;;;;;;10.93;6.70;;;8.10;99.90;;;7.84;66.69;100007.50;5105101;28;20208;-66
2022/12/30 07:13:08;;;;;;;8.50;5.77;;;8.10;99.90;;;7.84;66.68;100010.94;5111026;28;20207;-67
2022/12/30 07:15:37;;;;;;;9.90;5.93;;;8.10;99.90;;;7.84;66.48;100010.06;5104660;28;20207;-69
2022/12/30 07:18:05;;;;;;;9.00;6.23;;;8.10;99.90;;;7.86;67.02;100026.31;5108755;28;20260;-67
2022/12/30 07:20:34;;;;;;;10.07;6.75;;;8.10;99.90;;;7.84;66.34;100022.88;5107847;27;20462;-66
2022/12/30 07:23:03;;;;;;;8.67;6.03;;;8.10;99.90;;;7.84;66.46;100030.59;5110964;28;20265;-67
2022/12/30 07:25:32;;;;;;;11.70;6.37;;;8.10;99.90;;;7.88;66.90;100035.72;5109318;28;20219;-72
2022/12/30 07:28:01;;;;;;;11.23;6.37;;;8.10;99.90;;;7.89;66.77;100051.97;5103641;28;20793;-68
2022/12/30 07:30:33;;;;;;;9.50;6.80;;;8.10;99.90;;;7.91;66.94;100035.69;5109489;28;20911;-67
2022/12/30 07:33:01;;;;;;;9.30;6.23;;;8.10;99.90;;;7.91;67.10;100045.97;5107909;28;20232;-67
2022/12/30 07:35:30;;;;;;;10.13;6.60;;;8.10;99.90;;;7.93;66.77;100061.38;5108138;28;20996;-66
2022/12/30 07:37:58;;;;;;;9.63;6.40;;;8.10;99.90;;;7.94;66.69;100055.38;5107349;28;20204;-67
2022/12/30 07:40:26;;;;;;;7.13;5.50;;;8.10;99.90;;;7.95;67.33;100051.94;5108960;28;20204;-70
2022/12/30 07:42:55;;;;;;;7.77;5.33;;;8.20;99.90;;;7.99;66.62;100061.38;5111241;28;20208;-68
2022/12/30 07:45:24;;;;;;;16.90;6.70;;;8.20;99.90;;;7.97;66.30;100057.94;5115218;28;20588;-67
2022/12/30 07:47:53;;;;;;;13.43;5.90;;;8.20;99.90;;;7.99;67.11;100061.38;5111683;28;20582;-68
2022/12/30 07:50:22;;;;;;;8.60;6.03;;;8.20;99.90;;;8.01;66.46;100069.06;5110119;28;20232;-66
2022/12/30 07:52:51;;;;;;;9.43;5.80;;;8.30;99.90;;;8.04;66.78;100069.91;5109693;28;20660;-68
2022/12/30 07:55:20;;;;;;;9.77;5.43;;;8.30;99.90;;;8.04;65.87;100072.50;5108947;28;20204;-69
2022/12/30 07:57:48;;;;;;;9.00;5.70;;;8.20;99.90;;;8.06;66.15;100070.75;5112667;28;20208;-70
2022/12/30 08:00:21;;;;;;;9.30;6.03;;;8.30;99.90;;;8.09;66.96;100077.59;5109696;28;20231;-69
2022/12/30 08:02:55;;;;;;;9.07;5.77;;;8.30;99.90;;;8.08;66.01;100084.44;5105884;28;20208;-69
2022/12/30 08:05:24;;;;;;;9.50;5.70;;;8.30;99.90;;;8.13;66.84;100085.28;5108368;28;20196;-68
2022/12/30 08:07:53;;;;;;;10.73;6.17;;;8.40;99.90;;;8.14;66.63;100079.31;5111536;28;20220;-69
2022/12/30 08:10:22;;;;;;;8.20;5.40;;;8.40;99.90;;;8.16;66.29;100090.44;5111931;28;20200;-68
2022/12/30 08:12:50;;;;;;;9.77;5.70;;;8.40;99.90;;;8.20;65.81;100097.25;5111245;28;20228;-69
2022/12/30 08:15:19;;;;;;;8.77;5.77;;;8.40;99.90;;;8.19;65.87;100098.13;5127062;28;20548;-68
2022/12/30 08:17:48;;;;;;;10.73;5.40;;;8.40;99.90;;;8.20;66.20;100092.13;5110968;28;20218;-70
2022/12/30 08:20:18;;;;;;;10.40;5.73;;;8.40;99.90;;;8.21;65.46;100091.28;5105396;28;20200;-72
2022/12/30 08:22:46;;;;;;;11.20;5.40;;;8.40;99.90;;;8.28;66.30;100094.69;5110232;28;20261;-71
2022/12/30 08:25:15;;;;;;;9.47;5.37;;;8.50;99.90;;;8.38;66.06;100104.13;5113179;28;20699;-71
2022/12/30 08:27:44;;;;;;;9.23;5.87;;;8.60;99.90;;;8.44;65.94;100109.25;5110451;28;20232;-70
2022/12/30 08:30:13;;;;;;;7.10;4.80;;;8.60;99.90;;;8.48;65.01;100110.09;5111336;28;20211;-70
2022/12/30 08:32:42;;;;;;;8.30;4.93;;;8.60;99.90;;;8.49;65.11;100111.81;5110562;28;20235;-70
2022/12/30 08:35:10;;;;;;;9.73;4.97;;;8.70;99.90;;;8.48;65.25;100115.25;5113012;28;20242;-69
2022/12/30 08:37:41;;;;;;;9.90;5.80;;;8.70;99.90;;;8.50;65.43;100108.38;5115657;28;20607;-69
2022/12/30 08:40:12;;;;;;;7.23;5.13;;;8.70;99.90;;;8.57;65.54;100115.22;5115350;27;20206;-69
2022/12/30 08:42:41;;;;;;;7.97;5.23;;;8.80;99.90;;;8.64;65.16;100126.31;5110901;28;20212;-69
2022/12/30 08:45:10;;;;;;;8.03;4.70;;;8.80;99.90;;;8.62;64.87;100128.91;5113435;28;20648;-69
2022/12/30 08:47:39;;;;;;;7.03;4.83;;;8.90;99.90;;;8.64;65.66;100137.44;5111429;28;20720;-69
2022/12/30 08:50:09;;;;;;;8.60;5.83;;;8.80;99.90;;;8.64;65.66;100140.03;5111570;28;20212;-70
2022/12/30 08:52:38;;;;;;;7.37;5.37;;;8.90;99.90;;;9.06;66.28;100138.19;5109758;28;20297;-71
2022/12/30 08:55:08;;;;;;;8.50;4.93;;;9.40;99.90;;;10.69;63.35;100139.63;5112923;28;20559;-67
2022/12/30 08:57:39;;;;;;;7.23;4.70;;;11.10;99.90;;;12.75;57.87;100131.44;5112901;28;20218;-67
2022/12/30 09:00:09;;;;;;;10.97;4.93;;;13.00;99.90;;;14.89;51.61;100123.00;5106107;27;20230;-66
2022/12/30 09:02:38;;;;;;;8.63;5.47;;;15.00;99.90;;;16.94;45.98;100125.13;5105522;28;20265;-67
2022/12/30 09:05:07;;;;;;;6.43;5.00;;;17.10;99.90;;;18.79;41.37;100120.34;5110881;28;20709;-66
2022/12/30 09:07:36;;;;;;;6.67;4.43;;;18.90;99.90;;;20.14;36.83;100109.66;5112578;28;20657;-67
2022/12/30 09:10:26;;;;;;;5.57;4.18;;;20.10;94.80;;;21.41;34.45;100112.63;5110436;28;20234;-66
2022/12/30 09:12:55;;;;;;;7.10;4.80;;;21.50;88.70;;;22.46;32.75;100116.25;5111270;28;20200;-66
2022/12/30 09:15:23;;;;;;;9.40;4.55;;;22.70;83.00;;;23.31;29.78;100120.66;5110172;28;20208;-65
2022/12/30 09:17:52;;;;;;;7.18;4.10;;;23.00;71.60;;;23.81;29.40;100121.84;5101264;28;20229;-66
2022/12/30 09:20:20;;;;;;;7.03;4.40;;;23.50;71.30;;;24.35;28.83;100113.84;5106134;28;20208;-67
2022/12/30 09:22:50;;;;;;;5.78;4.03;;;24.40;68.20;;;24.83;28.28;100110.63;5110710;28;20240;-67
2022/12/30 09:25:19;;;;;;;6.45;4.80;;;25.00;65.90;;;25.69;27.22;100107.13;5109449;28;20227;-66
2022/12/30 09:27:48;;;;;;;6.30;4.68;;;25.90;62.80;;;25.91;25.48;100106.41;5104136;28;20207;-67
2022/12/30 09:30:17;;;;;;;5.57;4.38;;;25.60;59.30;;;25.68;25.92;100116.00;5099230;28;20224;-66
2022/12/30 09:32:45;;;;;;;7.55;4.40;;;25.50;58.80;;;25.05;26.54;100113.41;5107850;28;20760;-68
2022/12/30 09:35:14;;;;;;;9.15;4.55;;;25.00;58.80;;;24.80;26.59;100102.91;5111340;28;20208;-66
2022/12/30 09:37:43;;;;;;;6.65;4.85;;;24.80;58.60;;;24.75;26.90;100116.41;5111630;28;20582;-67
2022/12/30 09:40:16;;;;;;;6.30;4.15;;;24.80;59.00;;;24.96;26.96;100114.06;5103073;28;20203;-67
2022/12/30 09:45:45;;;;;;;5.50;3.92;;;25.20;56.80;;;26.21;25.57;100124.38;5103812;28;20200;-67
2022/12/30 09:48:22;;;;;;;6.95;4.05;;;26.40;57.70;;;27.12;24.20;100120.94;5106998;28;20561;-66
2022/12/30 09:50:55;;;;;;;5.93;4.10;;;27.40;55.90;;;27.94;23.11;100113.38;5109121;28;20188;-68
2022/12/30 09:53:37;;;;;;;6.00;3.25;;;28.30;54.30;;;28.66;22.03;100120.59;5109644;28;20188;-67
2022/12/30 09:56:14;;;;;;;6.03;3.33;;;28.80;51.50;;;29.10;21.63;100121.22;5110899;28;20200;-66
2022/12/30 09:58:47;;;;;;;4.10;3.50;;;29.30;51.40;;;29.59;20.98;100125.66;5102544;28;20195;-65
2022/12/30 10:01:28;;;;;;;7.57;3.42;;;29.80;49.40;;;30.03;20.69;100110.16;5110139;28;20230;-66
2022/12/30 10:03:59;;;;;;;4.80;3.55;;;30.10;48.80;;;28.91;20.15;100114.00;5108243;28;20235;-65
2022/12/30 10:06:34;;;;;;;4.90;3.20;;;28.70;47.60;;;26.48;22.64;100122.34;5108864;28;20207;-66
2022/12/30 10:09:38;;;;;;;4.55;3.10;;;26.30;49.20;;;23.42;26.04;100119.97;5105144;28;20349;-66
2022/12/30 10:12:49;;;;;;;4.50;3.25;;;23.60;52.30;;;21.59;30.69;100137.81;5103997;28;20192;-66
2022/12/30 10:15:43;;;;;;;4.45;2.90;;;21.50;58.60;;;23.03;29.23;100146.97;5107188;28;20691;-65
2022/12/30 10:18:39;;;;;;;4.78;2.60;;;23.20;58.30;;;24.80;26.06;100148.56;5102569;28;20210;-66
2022/12/30 10:21:27;;;;;;;4.32;2.97;;;24.70;55.80;;;26.55;24.03;100142.97;5103329;27;20218;-68
2022/12/30 10:24:16;;;;;;;6.15;3.17;;;26.10;54.10;;;28.32;22.25;100136.69;5110027;28;20719;-67
2022/12/30 10:26:49;;;;;;;5.53;3.10;;;28.00;52.10;;;29.62;20.82;100145.81;5107049;28;20209;-67
2022/12/30 10:29:20;;;;;;;5.55;3.00;;;29.30;49.60;;;29.09;19.82;100143.44;5106427;28;20267;-67
2022/12/30 10:31:52;;;;;;;5.05;2.58;;;28.30;47.40;;;28.46;21.49;100147.94;5104181;28;20291;-69
2022/12/30 10:34:25;;;;;;;4.97;2.83;;;28.10;50.00;;;28.50;21.61;100144.94;5106074;28;20242;-67
2022/12/30 10:37:00;;;;;;;5.13;3.15;;;28.50;49.80;;;28.67;20.99;100151.44;5106077;28;20614;-68
2022/12/30 10:39:33;;;;;;;4.40;2.60;;;28.50;48.70;;;29.39;20.59;100139.88;5106233;28;20191;-66
2022/12/30 10:42:22;;;;;;;4.40;2.90;;;29.10;48.40;;;29.46;20.05;100151.63;5108893;28;20496;-67
2022/12/30 10:45:12;;;;;;;4.40;2.60;;;29.20;46.80;;;29.89;20.03;100152.25;5107898;28;20324;-68
2022/12/30 10:47:59;;;;;;;5.43;2.35;;;29.70;47.00;;;30.15;19.39;100134.75;5105937;28;20612;-67
2022/12/30 10:50:37;;;;;;;3.78;2.65;;;29.90;46.30;;;30.76;18.73;100149.53;5107424;28;20216;-68
2022/12/30 10:53:14;;;;;;;5.57;3.03;;;30.60;46.40;;;31.18;18.48;100147.22;5108074;28;20204;-69
2022/12/30 10:55:51;;;;;;;4.60;2.55;;;30.60;45.00;;;31.45;18.14;100145.59;5105533;28;20199;-68
2022/12/30 10:58:27;;;;;;;5.63;2.78;;;31.20;45.00;;;32.52;17.84;100152.75;5108307;28;20652;-68
2022/12/30 11:00:56;;;;;;;6.30;2.67;;;32.20;44.60;;;33.47;16.49;100146.38;5110019;28;20304;-69
2022/12/30 11:03:41;;;;;;;3.30;2.60;;;32.70;43.40;;;34.39;15.87;100139.06;5109732;28;20248;-68
2022/12/30 11:06:21;;;;;;;4.35;2.35;;;33.60;42.10;;;34.34;15.34;100154.81;5106806;28;20196;-67
2022/12/30 11:08:51;;;;;;;4.47;2.70;;;33.60;40.70;;;34.24;15.20;100156.81;5102870;28;20565;-68
2022/12/30 11:14:42;;;;;;;4.32;2.25;;;33.30;40.50;;;34.28;14.70;100164.38;5108041;28;20207;-66
2022/12/30 11:14:43;;;;;;;5.40;2.42;;;33.20;39.50;;;34.20;14.86;100166.19;5097978;28;20191;-69
2022/12/30 11:17:23;;;;;;;3.55;2.20;;;33.40;39.70;;;34.43;14.84;100177.91;5106326;28;20612;-68
2022/12/30 11:19:56;;;;;;;5.90;2.38;;;33.60;39.30;;;35.13;14.26;100171.91;5111637;28;20206;-67
2022/12/30 11:22:25;;;;;;;5.32;2.47;;;34.10;38.60;;;34.81;13.66;100173.66;5099687;28;20196;-67
2022/12/30 11:25:03;;;;;;;3.63;2.05;;;33.30;37.50;;;34.40;13.59;100183.59;5100660;28;20199;-66
2022/12/30 11:27:43;;;;;;;4.70;2.00;;;33.10;37.70;;;33.78;13.97;100191.22;5104061;28;20222;-67
2022/12/30 11:30:28;;;;;;;4.40;2.10;;;32.40;38.00;;;33.58;14.22;100193.31;5101733;28;20219;-67
2022/12/30 11:33:00;;;;;;;3.67;2.17;;;32.30;37.90;;;33.45;14.19;100193.78;5104957;27;20259;-66
2022/12/30 11:35:39;;;;;;;5.40;2.53;;;31.90;38.30;;;33.32;14.88;100196.03;5105714;28;20208;-67
2022/12/30 11:38:33;;;;;;;4.53;2.25;;;32.30;38.60;;;32.48;14.44;100210.91;5107323;28;20268;-66
2022/12/30 11:41:28;;;;;;;4.45;2.50;;;31.40;37.40;;;29.94;16.56;100211.16;5105195;28;20196;-69
2022/12/30 11:44:15;;;;;;;4.80;2.08;;;29.20;39.10;;;26.94;18.78;100219.22;5085964;28;20204;-69